Time;durP1;ratioP1;P1;durP2;ratioP2;P2;SDS_P1;SDS_P2;PMS_P1;PMS_P2;Temp;Humidity;BMP_temperature;BMP_pressure;BME280_temperature;BME280_humidity;BME280_pressure;Samples;Min_cycle;Max_cycle;Signal;HPM_P1;HPM_P2
2023/11/04 00:00:16;;;;;;;18.55;4.30;;;;;;;;;;12672380;23;20016;-67
2023/11/04 00:05:13;;;;;;;10.20;4.25;;;;;;;;;;12697673;22;20089;-67
2023/11/04 00:10:10;;;;;;;8.07;4.18;;;;;;;;;;12693357;23;20024;-69
2023/11/04 00:15:06;;;;;;;9.10;4.05;;;;;;;;;;12698073;22;20024;-68
2023/11/04 00:20:03;;;;;;;7.95;4.15;;;;;;;;;;12699246;23;20072;-68
2023/11/04 00:25:02;;;;;;;9.23;4.28;;;;;;;;;;12699015;22;20042;-68
2023/11/04 00:29:58;;;;;;;9.05;4.32;;;;;;;;;;12696602;22;20028;-69
2023/11/04 00:34:56;;;;;;;9.00;4.10;;;;;;;;;;12696827;22;20024;-68
2023/11/04 00:39:53;;;;;;;9.20;4.35;;;;;;;;;;12696556;23;20484;-68
2023/11/04 00:44:49;;;;;;;9.23;3.92;;;;;;;;;;12697396;22;20095;-68
2023/11/04 00:49:45;;;;;;;7.97;4.03;;;;;;;;;;12696864;23;20032;-69
2023/11/04 00:54:42;;;;;;;8.30;3.60;;;;;;;;;;12695555;22;20047;-69
2023/11/04 00:59:38;;;;;;;10.50;4.38;;;;;;;;;;12697521;23;20028;-69
2023/11/04 01:04:35;;;;;;;6.45;3.85;;;;;;;;;;12670249;22;20028;-69
2023/11/04 01:09:31;;;;;;;8.48;4.30;;;;;;;;;;12690203;23;20024;-69
2023/11/04 01:14:30;;;;;;;10.93;4.15;;;;;;;;;;12696740;22;20020;-69
2023/11/04 01:19:26;;;;;;;7.72;4.10;;;;;;;;;;12696169;23;20401;-69
2023/11/04 01:24:23;;;;;;;9.20;4.13;;;;;;;;;;12695691;22;20347;-68
2023/11/04 01:29:22;;;;;;;14.38;3.80;;;;;;;;;;12697937;23;20034;-71
2023/11/04 01:34:18;;;;;;;8.25;3.90;;;;;;;;;;12696050;22;20028;-70
2023/11/04 01:39:15;;;;;;;7.43;3.88;;;;;;;;;;12696552;23;20028;-70
2023/11/04 01:44:11;;;;;;;11.52;4.00;;;;;;;;;;12696185;22;20103;-70
2023/11/04 01:49:08;;;;;;;11.05;4.28;;;;;;;;;;12697334;23;20399;-69
2023/11/04 01:54:05;;;;;;;8.88;3.90;;;;;;;;;;12695697;22;20024;-68
2023/11/04 01:59:02;;;;;;;7.68;4.03;;;;;;;;;;12695571;23;20051;-68
2023/11/04 02:04:00;;;;;;;6.05;3.97;;;;;;;;;;12692879;22;20078;-69
2023/11/04 02:08:57;;;;;;;7.53;4.25;;;;;;;;;;12696353;23;20024;-69
2023/11/04 02:13:54;;;;;;;9.50;4.10;;;;;;;;;;12696673;22;20099;-68
2023/11/04 02:18:51;;;;;;;8.55;3.95;;;;;;;;;;12689837;23;20393;-70
2023/11/04 02:23:47;;;;;;;10.25;4.03;;;;;;;;;;12696380;22;20122;-69
2023/11/04 02:28:43;;;;;;;9.50;4.20;;;;;;;;;;12699766;23;20162;-69
2023/11/04 02:33:41;;;;;;;6.43;3.80;;;;;;;;;;12699212;22;20020;-69
2023/11/04 02:38:37;;;;;;;7.75;3.80;;;;;;;;;;12700201;23;20028;-69
2023/11/04 02:43:34;;;;;;;8.45;4.18;;;;;;;;;;12699594;22;20058;-70
2023/11/04 02:48:30;;;;;;;8.98;4.20;;;;;;;;;;12697244;23;20074;-69
2023/11/04 02:53:26;;;;;;;8.50;4.05;;;;;;;;;;12696863;22;20097;-69
2023/11/04 02:58:23;;;;;;;7.15;3.35;;;;;;;;;;12699354;23;20024;-70
2023/11/04 03:03:19;;;;;;;9.32;3.92;;;;;;;;;;12698008;22;20473;-71
2023/11/04 03:08:15;;;;;;;8.95;4.30;;;;;;;;;;12699810;23;20028;-70
2023/11/04 03:13:12;;;;;;;10.15;3.88;;;;;;;;;;12697482;22;20066;-70
2023/11/04 03:18:08;;;;;;;10.98;3.70;;;;;;;;;;12698949;23;20405;-69
2023/11/04 03:23:04;;;;;;;10.50;3.88;;;;;;;;;;12699705;22;20028;-70
2023/11/04 03:28:01;;;;;;;9.85;4.13;;;;;;;;;;12691154;23;20086;-71
2023/11/04 03:32:59;;;;;;;8.20;3.67;;;;;;;;;;12697284;22;20792;-71
2023/11/04 03:37:55;;;;;;;6.47;3.65;;;;;;;;;;12698897;23;20024;-72
2023/11/04 03:42:52;;;;;;;9.55;4.20;;;;;;;;;;12697610;22;20028;-72
2023/11/04 03:47:48;;;;;;;11.48;3.40;;;;;;;;;;12695684;23;20095;-69
2023/11/04 03:52:45;;;;;;;8.27;3.83;;;;;;;;;;12698433;22;20024;-68
2023/11/04 03:57:41;;;;;;;7.45;3.75;;;;;;;;;;12698576;23;20042;-68
2023/11/04 04:02:37;;;;;;;6.45;3.63;;;;;;;;;;12697759;22;20035;-69
2023/11/04 04:07:34;;;;;;;8.05;3.95;;;;;;;;;;12697988;23;20385;-69
2023/11/04 04:12:30;;;;;;;9.27;4.07;;;;;;;;;;12697202;22;20469;-69
2023/11/04 04:17:27;;;;;;;8.30;3.60;;;;;;;;;;12697910;23;20114;-69
2023/11/04 04:22:24;;;;;;;6.82;3.72;;;;;;;;;;12696430;22;20048;-68
2023/11/04 04:27:20;;;;;;;10.13;3.70;;;;;;;;;;12698055;23;20028;-69
2023/11/04 04:32:16;;;;;;;9.18;3.90;;;;;;;;;;12692143;22;20023;-69
2023/11/04 04:37:13;;;;;;;5.43;3.80;;;;;;;;;;12696760;23;20622;-69
2023/11/04 04:42:10;;;;;;;6.22;3.75;;;;;;;;;;12697715;22;20035;-71
2023/11/04 04:47:06;;;;;;;7.05;3.90;;;;;;;;;;12695557;23;20030;-72
2023/11/04 04:52:03;;;;;;;10.25;4.25;;;;;;;;;;12696718;22;20085;-72
2023/11/04 04:56:59;;;;;;;7.88;3.97;;;;;;;;;;12697392;23;20028;-72
2023/11/04 05:01:56;;;;;;;7.03;4.05;;;;;;;;;;12696673;23;20070;-72
2023/11/04 05:06:52;;;;;;;8.70;4.13;;;;;;;;;;12697078;22;20031;-71
2023/11/04 05:11:49;;;;;;;6.35;3.90;;;;;;;;;;12697172;23;20032;-71
2023/11/04 05:16:45;;;;;;;7.40;3.90;;;;;;;;;;12697023;22;20409;-70
2023/11/04 05:21:41;;;;;;;6.07;3.72;;;;;;;;;;12696619;23;20477;-71
2023/11/04 05:26:39;;;;;;;8.27;4.40;;;;;;;;;;12697382;22;20083;-69
2023/11/04 05:31:35;;;;;;;5.60;3.70;;;;;;;;;;12695944;23;20024;-69
2023/11/04 05:36:32;;;;;;;6.30;4.05;;;;;;;;;;12690070;22;20020;-69
2023/11/04 05:41:28;;;;;;;7.93;4.10;;;;;;;;;;12696790;23;20024;-70
2023/11/04 05:46:24;;;;;;;7.22;4.18;;;;;;;;;;12694702;22;20028;-70
2023/11/04 05:51:25;;;;;;;6.18;3.50;;;;;;;;;;12696868;23;20039;-70
2023/11/04 05:56:21;;;;;;;5.93;3.88;;;;;;;;;;12696416;22;20032;-71
2023/11/04 06:01:22;;;;;;;7.40;3.78;;;;;;;;;;12698740;23;20043;-70
2023/11/04 06:06:21;;;;;;;4.97;3.72;;;;;;;;;;12674075;23;20020;-70
2023/11/04 06:11:19;;;;;;;8.63;3.78;;;;;;;;;;12700625;23;20028;-70
2023/11/04 06:16:19;;;;;;;8.18;4.32;;;;;;;;;;12700140;22;20064;-72
2023/11/04 06:21:16;;;;;;;9.77;3.83;;;;;;;;;;12699108;23;20099;-72
2023/11/04 06:26:19;;;;;;;7.88;3.83;;;;;;;;;;12700305;22;20052;-72
2023/11/04 06:31:16;;;;;;;7.88;3.80;;;;;;;;;;12699815;23;20059;-71
2023/11/04 06:36:13;;;;;;;6.25;4.25;;;;;;;;;;12700615;22;20024;-71
2023/11/04 06:41:16;;;;;;;8.18;3.83;;;;;;;;;;12694806;23;20028;-71
2023/11/04 06:46:12;;;;;;;5.47;3.65;;;;;;;;;;12698634;22;20035;-71
2023/11/04 06:51:09;;;;;;;6.75;3.90;;;;;;;;;;12699735;23;20023;-70
2023/11/04 06:56:07;;;;;;;6.07;4.20;;;;;;;;;;12699654;22;20024;-70
2023/11/04 07:01:04;;;;;;;5.72;4.18;;;;;;;;;;12699962;23;20327;-70
2023/11/04 07:06:01;;;;;;;6.18;4.40;;;;;;;;;;12699551;22;20024;-70
2023/11/04 07:10:57;;;;;;;13.88;4.13;;;;;;;;;;12698782;23;20024;-70
2023/11/04 07:15:53;;;;;;;5.75;3.80;;;;;;;;;;12698008;22;20047;-70
2023/11/04 07:20:50;;;;;;;7.05;3.90;;;;;;;;;;12695315;23;20189;-70
2023/11/04 07:25:46;;;;;;;6.95;3.63;;;;;;;;;;12695855;22;20361;-69
2023/11/04 07:30:43;;;;;;;7.10;4.00;;;;;;;;;;12696068;23;20026;-70
2023/11/04 07:35:39;;;;;;;8.65;3.83;;;;;;;;;;12696473;22;20497;-73
2023/11/04 07:40:35;;;;;;;6.50;3.72;;;;;;;;;;12694068;23;20869;-73
2023/11/04 07:45:33;;;;;;;10.40;4.05;;;;;;;;;;12688812;22;20117;-73
2023/11/04 07:50:29;;;;;;;4.70;3.70;;;;;;;;;;12695253;23;20489;-72
2023/11/04 07:55:25;;;;;;;6.53;3.55;;;;;;;;;;12664732;23;20024;-73
2023/11/04 08:00:22;;;;;;;6.07;3.70;;;;;;;;;;12687907;23;20103;-72
2023/11/04 08:05:19;;;;;;;8.43;4.18;;;;;;;;;;12694460;22;20070;-72
2023/11/04 08:10:17;;;;;;;12.50;4.38;;;;;;;;;;12691306;23;20424;-73
2023/11/04 08:15:13;;;;;;;10.02;4.25;;;;;;;;;;12693888;22;20103;-73
2023/11/04 08:20:11;;;;;;;4.40;3.85;;;;;;;;;;12694209;23;20024;-74
2023/11/04 08:25:08;;;;;;;4.50;3.97;;;;;;;;;;12694505;22;20086;-74
2023/11/04 08:30:07;;;;;;;4.35;3.88;;;;;;;;;;12696798;23;20089;-73
2023/11/04 08:35:04;;;;;;;5.93;4.18;;;;;;;;;;12695278;22;20050;-73
2023/11/04 08:40:00;;;;;;;5.05;3.72;;;;;;;;;;12696262;23;20020;-73
2023/11/04 08:44:57;;;;;;;7.55;4.38;;;;;;;;;;12692397;22;20051;-73
2023/11/04 08:49:53;;;;;;;5.57;4.03;;;;;;;;;;12694729;23;20078;-74
2023/11/04 08:54:50;;;;;;;6.25;4.38;;;;;;;;;;12691907;22;20111;-73
2023/11/04 08:59:46;;;;;;;6.63;4.07;;;;;;;;;;12693998;23;20484;-73
2023/11/04 09:04:43;;;;;;;6.22;3.53;;;;;;;;;;12693244;22;20020;-72
2023/11/04 09:09:44;;;;;;;8.60;4.38;;;;;;;;;;12686323;23;20050;-74
2023/11/04 09:14:40;;;;;;;5.35;4.13;;;;;;;;;;12693681;22;20103;-74
2023/11/04 09:19:37;;;;;;;6.80;4.00;;;;;;;;;;12694458;23;20028;-75
2023/11/04 10:46:45;;;;;;;5.93;3.90;;;;;;;;;;12692762;22;20020;-73
2023/11/04 10:51:45;;;;;;;4.28;3.70;;;;;;;;;;12698032;23;20028;-73
2023/11/04 11:30:10;;;;;;;6.60;3.58;;;;;;;;;;12561662;23;20095;-73
2023/11/04 11:35:35;;;;;;;5.95;3.70;;;;;;;;;;12714256;22;20028;-73
2023/11/04 11:40:32;;;;;;;4.47;3.80;;;;;;;;;;12670875;23;20020;-73
2023/11/04 11:57:57;;;;;;;8.55;4.05;;;;;;;;;;12081764;24;20036;-73
2023/11/04 12:08:14;;;;;;;6.45;3.78;;;;;;;;;;12691298;22;20024;-73
2023/11/04 13:10:07;;;;;;;4.90;4.50;;;;;;;;;;12505039;23;20336;-74
2023/11/04 13:20:24;;;;;;;4.75;3.90;;;;;;;;;;12681768;22;20602;-72
2023/11/04 13:25:23;;;;;;;5.97;5.00;;;;;;;;;;12696334;22;20024;-75
2023/11/04 13:30:22;;;;;;;4.50;4.10;;;;;;;;;;12696262;23;20020;-72
2023/11/04 13:35:18;;;;;;;4.78;4.38;;;;;;;;;;12696125;22;20020;-73
2023/11/04 13:40:15;;;;;;;5.07;4.60;;;;;;;;;;12696198;23;20095;-73
2023/11/04 14:06:40;;;;;;;5.10;4.17;;;;;;;;;;12713809;22;20107;-73
2023/11/04 14:12:07;;;;;;;4.53;4.13;;;;;;;;;;12444499;23;20022;-73
2023/11/04 14:17:03;;;;;;;5.28;4.78;;;;;;;;;;12444701;23;20018;-73
2023/11/04 14:21:59;;;;;;;4.43;4.03;;;;;;;;;;12447324;23;20025;-73
2023/11/04 14:27:31;;;;;;;5.25;4.53;;;;;;;;;;12682053;22;20024;-73
2023/11/04 14:50:40;;;;;;;4.53;4.13;;;;;;;;;;12698790;23;20008;-73
2023/11/04 15:07:10;;;;;;;5.13;4.68;;;;;;;;;;12697405;22;20032;-72
2023/11/04 15:12:12;;;;;;;6.15;4.57;;;;;;;;;;12698601;23;20048;-72
2023/11/04 15:17:09;;;;;;;6.53;5.10;;;;;;;;;;12696826;22;20024;-72
2023/11/04 15:22:05;;;;;;;4.43;4.03;;;;;;;;;;12698802;23;20031;-72
2023/11/04 15:27:04;;;;;;;4.75;4.35;;;;;;;;;;12697863;22;20474;-71
2023/11/04 15:32:00;;;;;;;5.05;4.57;;;;;;;;;;12670022;23;20477;-75
2023/11/04 15:36:56;;;;;;;9.02;4.65;;;;;;;;;;12690588;22;20028;-72
2023/11/04 15:41:53;;;;;;;8.65;5.28;;;;;;;;;;12696525;23;20043;-72
2023/11/04 15:47:41;;;;;;;5.18;4.72;;;;;;;;;;12693420;22;20354;-74
2023/11/04 16:20:13;;;;;;;5.53;4.97;;;;;;;;;;12697878;22;20027;-72
2023/11/04 16:36:21;;;;;;;5.30;4.80;;;;;;;;;;12696590;22;20062;-72
2023/11/04 16:41:18;;;;;;;4.93;4.50;;;;;;;;;;12688300;23;20074;-71
2023/11/04 16:46:14;;;;;;;5.75;5.13;;;;;;;;;;12692788;22;20031;-72
2023/11/04 16:51:10;;;;;;;5.03;4.55;;;;;;;;;;12691821;23;20503;-75
2023/11/04 16:56:07;;;;;;;6.18;4.70;;;;;;;;;;12694995;22;20461;-72
2023/11/04 17:01:03;;;;;;;5.63;4.18;;;;;;;;;;12693786;23;20070;-72
2023/11/04 17:06:44;;;;;;;;;;;;;;;;;;;;;
2023/11/04 17:17:36;;;;;;;5.43;4.93;;;;;;;;;;12625039;22;20100;-72
2023/11/04 17:27:52;;;;;;;4.93;4.35;;;;;;;;;;12686171;22;20024;-73
2023/11/04 17:57:38;;;;;;;5.18;4.75;;;;;;;;;;12689333;22;20106;-73
2023/11/04 18:07:51;;;;;;;5.43;4.93;;;;;;;;;;12699773;22;20020;-72
2023/11/04 18:17:59;;;;;;;6.43;4.93;;;;;;;;;;12652914;22;20108;-71
2023/11/04 18:28:06;;;;;;;5.10;4.68;;;;;;;;;;12703430;22;20024;-72
2023/11/04 18:38:37;;;;;;;5.70;4.53;;;;;;;;;;12705226;22;20020;-72
2023/11/04 18:43:33;;;;;;;5.70;5.20;;;;;;;;;;12697745;22;20087;-72
2023/11/04 18:48:29;;;;;;;5.18;4.70;;;;;;;;;;12686430;23;20024;-71
2023/11/04 18:53:51;;;;;;;5.05;4.63;;;;;;;;;;12688136;22;20039;-72
2023/11/04 18:58:47;;;;;;;5.10;4.60;;;;;;;;;;12696635;23;20032;-72
2023/11/04 19:03:43;;;;;;;4.90;4.50;;;;;;;;;;12690442;22;20024;-72
2023/11/04 19:08:40;;;;;;;5.18;4.78;;;;;;;;;;12696802;23;20024;-72
2023/11/04 19:19:11;;;;;;;5.28;4.78;;;;;;;;;;12702732;22;20024;-73
2023/11/04 19:24:10;;;;;;;5.35;4.88;;;;;;;;;;12667098;22;20034;-73
2023/11/04 19:29:07;;;;;;;6.50;5.28;;;;;;;;;;12669731;23;20036;-73
2023/11/04 19:34:03;;;;;;;4.72;4.32;;;;;;;;;;12696427;22;20027;-73
2023/11/04 19:39:00;;;;;;;5.18;4.72;;;;;;;;;;12666983;23;20573;-73
2023/11/04 19:44:42;;;;;;;5.10;4.70;;;;;;;;;;12708857;22;20092;-73
2023/11/04 19:49:55;;;;;;;5.00;4.50;;;;;;;;;;12458145;23;20088;-73
2023/11/04 19:54:53;;;;;;;5.13;4.72;;;;;;;;;;12538329;23;20029;-73
2023/11/04 19:59:49;;;;;;;8.23;5.25;;;;;;;;;;12542314;23;20067;-73
2023/11/04 20:10:36;;;;;;;5.03;4.63;;;;;;;;;;12723015;22;20028;-72
2023/11/04 20:22:08;;;;;;;5.28;4.88;;;;;;;;;;12484104;23;20026;-72
2023/11/04 20:27:31;;;;;;;5.53;5.03;;;;;;;;;;12398635;23;20557;-72
2023/11/04 20:38:06;;;;;;;5.63;5.00;;;;;;;;;;12710415;22;20016;-73
2023/11/04 20:53:52;;;;;;;6.53;4.85;;;;;;;;;;12694794;22;20108;-73
2023/11/04 20:58:49;;;;;;;5.70;5.07;;;;;;;;;;12691856;23;20044;-72
2023/11/04 21:09:49;;;;;;;5.65;5.10;;;;;;;;;;12660135;23;20020;-72
2023/11/04 21:14:46;;;;;;;5.88;5.38;;;;;;;;;;12668729;22;20024;-71
2023/11/04 21:19:42;;;;;;;5.38;4.90;;;;;;;;;;12694639;23;20043;-72
2023/11/04 21:30:12;;;;;;;5.38;4.90;;;;;;;;;;12694738;22;20335;-72
2023/11/04 21:35:09;;;;;;;6.63;5.00;;;;;;;;;;12693580;22;20107;-71
2023/11/04 21:40:06;;;;;;;7.72;4.72;;;;;;;;;;12694503;23;20116;-72
2023/11/04 21:45:03;;;;;;;6.18;5.30;;;;;;;;;;12695532;22;20027;-71
2023/11/04 21:50:00;;;;;;;5.32;4.82;;;;;;;;;;12695905;23;20085;-72
2023/11/04 21:55:28;;;;;;;6.10;5.53;;;;;;;;;;12712870;22;20016;-72
2023/11/04 22:00:25;;;;;;;5.70;4.60;;;;;;;;;;12644886;23;20020;-72
2023/11/04 22:05:21;;;;;;;4.75;4.35;;;;;;;;;;12688327;22;20515;-72
2023/11/04 22:10:18;;;;;;;4.90;4.50;;;;;;;;;;12694318;23;20091;-72
2023/11/04 22:26:23;;;;;;;5.47;4.90;;;;;;;;;;12486717;23;20076;-75
2023/11/04 22:31:19;;;;;;;4.93;4.50;;;;;;;;;;12651010;23;20074;-75
2023/11/04 22:36:16;;;;;;;4.82;4.15;;;;;;;;;;12693190;22;20020;-71
2023/11/04 22:41:12;;;;;;;5.88;4.57;;;;;;;;;;12691140;23;20031;-70
2023/11/04 22:46:09;;;;;;;5.53;4.45;;;;;;;;;;12695751;22;20027;-71
2023/11/04 22:51:06;;;;;;;4.65;4.13;;;;;;;;;;12697235;23;20517;-71
2023/11/04 22:56:02;;;;;;;11.45;4.03;;;;;;;;;;12697088;22;20031;-69
2023/11/04 23:00:59;;;;;;;4.47;4.07;;;;;;;;;;12699999;23;20024;-66
2023/11/04 23:05:55;;;;;;;4.40;4.00;;;;;;;;;;12699599;22;20023;-66
2023/11/04 23:10:52;;;;;;;4.63;4.20;;;;;;;;;;12693357;23;20039;-66
2023/11/04 23:15:48;;;;;;;5.78;4.30;;;;;;;;;;12696180;22;20024;-66
2023/11/04 23:20:44;;;;;;;5.28;4.10;;;;;;;;;;12698282;23;20024;-69
2023/11/04 23:25:41;;;;;;;4.72;4.22;;;;;;;;;;12698887;22;20016;-68
2023/11/04 23:30:38;;;;;;;4.90;4.40;;;;;;;;;;12697734;23;20218;-70
2023/11/04 23:35:34;;;;;;;4.95;4.45;;;;;;;;;;12698035;22;20024;-70
2023/11/04 23:40:32;;;;;;;5.43;4.28;;;;;;;;;;12697555;23;20502;-70
2023/11/04 23:45:28;;;;;;;5.07;3.95;;;;;;;;;;12698343;22;20027;-67
2023/11/04 23:50:25;;;;;;;4.28;3.88;;;;;;;;;;12698538;23;20024;-70
2023/11/04 23:55:21;;;;;;;4.53;4.13;;;;;;;;;;12697562;22;20030;-69
